Fourmile, KY (40939)

1:03 PM EDT on July 14, 2014 (GMT -0400)
Colmar (KKYMIDDL2) Elev 1135 ft | 36.66 °N, 83.67 °W | Change Station

Current weather conditions updated 8 minutes ago

Scattered Clouds
Scattered Clouds
85.5 °F
Feels Like 93 °F
N
1.0
Wind Variable Wind from NE

Today is forecast to be nearly the same temperature as yesterday. Showers and thunderstorms.

Today
High -- | Low -- °F
--% Chance of Precip.
Yesterday
High -- | Low -- °F
Precip. -- in
6:26 AM 8:54 PM
Waning Gibbous, 93% visible
Pressure 29.98 in
Visibility 10.0 miles
Clouds Scattered Clouds 12000 ft
Heat Index 93 °F
Dew Point 74 °F
Humidity 69%
Rainfall 0.56 in
Snow Depth Not available.
UV 9 out of 12
Pollen 1.00 out of 12
Air Quality Not available.
Flu Activity Sporadic
METAR K1A6 141655Z AUTO 22006KT 200V280 10SM SCT120 30/22 A2998 RMK AO2 T02980216

More Conditions Fewer Conditions

Pressure 29.98 in
Visibility 10.0 miles
Clouds Scattered Clouds 12000 ft
Heat Index 93 °F
Dew Point 74 °F
Humidity 69%
Rainfall 0.56 in
Snow Depth Not available.
UV 9 out of 12
Pollen 1.00 out of 12
Air Quality Not available.
Flu Activity Sporadic
METAR K1A6 141655Z AUTO 22006KT 200V280 10SM SCT120 30/22 A2998 RMK AO2 T02980216

More Conditions Fewer Conditions

10-Day Weather Forecast

Almanac

Astronomy

Jul. 14, 2014 Rise Set
Actual Time 6:26 AM EDT 8:54 PM EDT
Civil Twilight 5:57 AM EDT 9:23 PM EDT
Nautical Twilight 5:20 AM EDT 10:00 PM EDT
Astronomical Twilight 4:39 AM EDT 10:41 PM EDT
Moon 10:29 PM EDT 9:03 AM EDT
Length of Visible Light 15h 26m
Length of Day
14h 27m
Tomorrow will be 1m 9s shorter.
Waning Gibbous, 93% of the Moon is Illuminated
Today
Waning Gibbous
Jul 18
Last Quarter
Jul 26
New
Aug 3
First Quarter
Aug 10
Full

Today's Extremes

State Highs State Lows

Community

WunderPhotos

Upload Photos

1,733,738 photos uploaded!

WunderBlogs® & News

Nearby

Snow Depth

Station Depth Elevation
No new snow has been reported.

Earthquake Activity

City Distance Mag. Time & Date
No recent earthquake activity has been reported nearby.
Minimum magnitude displayed is 2.5.

Coastal Water Temperatures

Place Temperature
No Stations Reporting

Nearby Weather Stations

Station Location Temp. Heat Index Dew Point Humidity Wind Precip. Elev Updated Type
Colmar, Middlesboro, KY 85.5 °F 93 °F 74 °F 69% NE  at  1.0 mph - / hr 1135 ft 12:55 PM EDT Normal
RAWS YELLOW CREEK KY, Middlesboro, KY 87 °F 97 °F 75 °F 68% NNE  at  3 mph 0.00 in / hr 1089 ft 12:26 PM EDT MADIS
liford's, Barbourville, KY 86.0 °F 96 °F 76 °F 71% SSE  at  3.7 mph - / hr 1066 ft 12:50 PM EDT Normal
Mackey Bend, Barbourville, KY 90.3 °F 99 °F 73 °F 57% WSW  at  6.8 mph 0.00 in / hr 1020 ft 1:03 PM EDT Rapid Fire
White Rocks View, Rose Hill, VA 83.4 °F 92 °F 76 °F 79% West  at  3.0 mph 0.00 in / hr 1470 ft 1:03 PM EDT Rapid Fire
Rose Hill, Rose Hill, VA 81.0 °F 86 °F 73 °F 76% SW  at  1.0 mph 0.00 in / hr 1860 ft 1:02 PM EDT Normal

Show More Stations Show Fewer Stations